Tiempo atmosférico en la estación meteorológica de Ballobar, Huesca (178 m.)

Fecha
DESCASC
Temp. máxima en grados centígrados (hora)
DESCASC
Temp. mínima en grados centígrados (hora)
DESCASC
Temp. media en grados centígrados
DESCASC
Racha de viento máxima en m/sg (hora)
DESCASC
Velocidad máxima media en intervalos de 10 minutos(hora)
DESCASC
Precipitaciones diarias en mm
DESCASC
Precipitaciones de 00:00 a 06:00 en mm
DESCASC
Precipitaciones de 06:00 a 12:00 en mm
DESCASC
Precipitaciones de 12:00 a 18:00 en mm
DESCASC
Precipitaciones de 18:00 a 24:00 en mm
DESCASC
10-12-2017 8.6 (15:10) 3.1 (07:20) 5.9 6.11 (22:30) 4.17 (20:40) 0.2 0 0 0 0.2
09-12-2017 12.9 (14:30) 5.8 (08:20) 9.3 15.83 (00:30) 10 (00:30) 0 0 0 0 0
08-12-2017 14 (16:50) -3.2 (01:00) 5.4 15 (17:00) 10.83 (17:00) 0 0 0 0 0
07-12-2017 4.7 (16:10) -5.6 (-00:0) -0.5 3.61 (11:50) 2.78 (11:50) 0 0 0 0 0
06-12-2017 7.5 (15:40) -5.6 (-00:0) 1 3.61 (12:20) 2.78 (12:30) 0 0 0 0 0
05-12-2017 8.3 (15:20) -4.5 (-00:0) 1.9 3.33 (13:50) 2.22 (12:00) 0 0 0 0 0
04-12-2017 8.9 (15:30) -6.2 (-00:0) 1.3 4.17 (01:00) 3.06 (01:10) 0 0 0 0 0
03-12-2017 10.6 (15:50) -4.1 (-00:0) 3.3 10.28 (00:40) 6.39 (00:10) 0 0 0 0 0
02-12-2017 10.5 (14:50) 2.1 (00:00) 6.3 15.83 (10:20) 11.11 (12:30) 0 0 0 0 0
01-12-2017 10.6 (14:50) 2.7 (00:00) 6.7 16.11 (06:10) 10.28 (13:30) 0.2 0 0.2 0 0
30-11-2017 12 (14:40) -1.8 (-00:0) 5.1 13.89 (21:30) 9.72 (21:10) 0 0 0 0 0
29-11-2017 10.9 (16:00) -2.7 (-00:0) 4.1 8.06 (20:50) 5.28 (21:00) 0 0 0 0 0
28-11-2017 11 (15:10) -2.2 (-00:0) 4.4 6.39 (21:20) 3.89 (21:20) 0 0 0 0 0
27-11-2017 10.6 (15:30) -2.3 (-00:0) 4.2 5.56 (01:10) 3.89 (01:00) 0 0 0 0 0
26-11-2017 14.3 (15:10) 3.7 (00:00) 9 13.06 (00:20) 8.61 (00:20) 0 0 0 0 0
25-11-2017 17.1 (15:30) 6.4 (00:00) 11.8 16.67 (17:10) 10.83 (19:30) 0 0 0 0 0
24-11-2017 16.1 (15:30) 4.3 (00:00) 10.2 4.17 (07:20) 2.5 (11:00) 0 0 0 0 0
23-11-2017 14.1 (15:50) 0.5 (00:00) 7.3 3.33 (19:00) 2.5 (19:10) 0 0 0 0 0
22-11-2017 12.8 (15:50) -1.8 (-00:0) 5.5 3.61 (12:00) 2.5 (11:50) 0 0 0 0 0
21-11-2017 13.4 (15:20) -1 (-00:0) 6.2 3.61 (10:50) 2.5 (10:40) 0 0 0 0 0
20-11-2017 13.3 (16:00) -1.5 (-00:0) 5.9 4.44 (16:10) 3.06 (11:40) 0 0 0 0 0
19-11-2017 13.7 (16:00) -0.4 (00:00) 6.6 4.44 (06:20) 3.06 (06:20) 0 0 0 0 0
18-11-2017 14.5 (14:40) -0.4 (00:00) 7 3.89 (14:20) 2.5 (08:30) 0 0 0 0 0
17-11-2017 14.5 (15:30) -1.6 (-00:0) 6.4 3.61 (11:50) 2.5 (10:30) 0 0 0 0 0
16-11-2017 13.6 (15:30) -1.3 (-00:0) 6.2 3.61 (10:40) 2.5 (10:40) 0 0 0 0 0
15-11-2017 12.6 (15:40) -0.8 (-00:0) 5.9 4.72 (02:20) 3.61 (02:20) 0 0 0 0 0

Gráficas

Temp. máximas Temp. mínimas Temp. medias Precipitaciones Rachas de viento máximas Velocidades máximas media en intervalos de 10 minutos

Datos horarios

Fecha y hora oficial Temperatura (ºC) Velocidad del viento (km/h) Dirección del viento Racha (km/h) Dirección de racha Precipitación (mm) Presión (hPa) Tendencia (hPa) Humedad (%)
2017-12-14 23:00:00 10.9 2 Oeste 5 Sur 0 -- -- 79
2017-12-14 22:00:00 12 0 Calma 15 Oeste 0 -- -- 74
2017-12-14 21:00:00 12.5 8 Oeste 12 Sudoeste 0 -- -- 76
2017-12-14 20:00:00 12 6 Oeste 11 Oeste 0 -- -- 75
2017-12-14 19:00:00 12.2 3 Oeste 7 Oeste 0 -- -- 71
2017-12-14 18:00:00 12.9 4 Oeste 9 Oeste 0 -- -- 67
2017-12-14 17:00:00 14.5 5 Oeste 15 Oeste 0 -- -- 61
2017-12-14 16:00:00 13.6 5 Nordeste 10 Noroeste 0 -- -- 63
2017-12-14 15:00:00 12.1 8 Nordeste 11 Nordeste 0 -- -- 65
2017-12-14 14:00:00 11.1 5 Nordeste 10 Nordeste 0 -- -- 69
2017-12-14 13:00:00 10 6 Este 9 Nordeste 0 -- -- 71
2017-12-14 12:00:00 7.5 4 Nordeste 12 Nordeste 0 -- -- 75
2017-12-14 11:00:00 5.9 9 Nordeste 12 Nordeste 0 -- -- 79
2017-12-14 10:00:00 3.8 9 Nordeste 15 Nordeste 0 -- -- 84
2017-12-14 09:00:00 3.1 13 Nordeste 20 Norte 0 -- -- 87
2017-12-14 08:00:00 1.8 0 Calma 9 Nordeste 0 -- -- 89
2017-12-14 07:00:00 1.8 6 Nordeste 10 Oeste 0 -- -- 88
2017-12-14 06:00:00 0.9 2 Este 6 Nordeste 0 -- -- 90
2017-12-14 05:00:00 0.9 2 Sudoeste 11 Noroeste 0 -- -- 89
2017-12-14 04:00:00 1 3 Oeste 10 Oeste 0 -- -- 89
2017-12-14 03:00:00 1.4 2 Noroeste 6 Nordeste 0 -- -- 86
2017-12-14 02:00:00 1.6 0 Calma 4 Oeste 0 -- -- 86
2017-12-14 01:00:00 1.7 5 Oeste 8 Nordeste 0 -- -- 84
2017-12-14 00:00:00 2.5 3 Este 12 Nordeste 0 -- -- 80
2017-12-13 23:00:00 3.2 2 Nordeste 14 Oeste 0 -- -- 77
2017-12-13 22:00:00 5.5 9 Oeste 13 Oeste 0 -- -- 72
2017-12-13 21:00:00 3.4 2 Sudoeste 14 Oeste 0 -- -- 76
2017-12-13 20:00:00 3.1 9 Oeste 13 Oeste 0 -- -- 76
2017-12-13 19:00:00 3.2 7 Oeste 12 Oeste 0 -- -- 76
2017-12-13 18:00:00 4 0 Calma 5 Noroeste 0 -- -- 71
2017-12-13 17:00:00 6.5 0 Calma 9 Este 0 -- -- 64
2017-12-13 16:00:00 6.8 5 Este 12 Este 0 -- -- 62
2017-12-13 15:00:00 6.7 5 Este 9 Nordeste 0 -- -- 62
2017-12-13 14:00:00 5.8 3 Este 10 Nordeste 0 -- -- 65
2017-12-13 13:00:00 3.9 7 Nordeste 12 Nordeste 0 -- -- 72
2017-12-13 12:00:00 2 8 Nordeste 13 Nordeste 0 -- -- 83
2017-12-13 11:00:00 0.1 4 Nordeste 8 Este 0 -- -- 86
2017-12-13 10:00:00 -1.5 0 Calma 4 Sur 0 -- -- 92
2017-12-13 09:00:00 -2.6 0 Calma 8 Noroeste 0 -- -- 92
2017-12-13 08:00:00 -2.5 6 Oeste 13 Oeste 0 -- -- 92
2017-12-13 07:00:00 -2.7 2 Noroeste 7 Oeste 0 -- -- 91
2017-12-13 06:00:00 -2 6 Oeste 9 Oeste 0 -- -- 91
2017-12-13 05:00:00 -1.6 5 Oeste 9 Oeste 0 -- -- 91
2017-12-13 04:00:00 -0.6 5 Oeste 12 Oeste 0 -- -- 88
2017-12-13 03:00:00 -0.5 5 Oeste 12 Oeste 0 -- -- 87
2017-12-13 02:00:00 -0.4 6 Oeste 10 Oeste 0 -- -- 87
2017-12-13 01:00:00 0.4 7 Oeste 10 Noroeste 0 -- -- 85
2017-12-13 00:00:00 1.2 5 Oeste 12 Oeste 0 -- -- 81
2017-12-12 23:00:00 2.8 6 Oeste 15 Sudoeste 0 -- -- 75
2017-12-12 22:00:00 4.4 3 Noroeste 26 Oeste 0 -- -- 70
2017-12-12 21:00:00 7 19 Oeste 35 Oeste 0 -- -- 64
2017-12-12 20:00:00 7.8 21 Oeste 36 Noroeste 0 -- -- 61
2017-12-12 19:00:00 8.5 23 Oeste 35 Oeste 0 -- -- 57
2017-12-12 18:00:00 9.2 22 Oeste 35 Oeste 0 -- -- 51
2017-12-12 17:00:00 10.7 18 Oeste 34 Noroeste 0 -- -- 44
2017-12-12 16:00:00 11.8 21 Oeste 31 Oeste 0 -- -- 43
2017-12-12 15:00:00 11.7 21 Oeste 34 Oeste 0 -- -- 47
2017-12-12 14:00:00 10.9 18 Oeste 33 Noroeste 0 -- -- 51
2017-12-12 13:00:00 10.2 15 Noroeste 39 Oeste 0 -- -- 54
2017-12-12 12:00:00 9.1 22 Noroeste 39 Noroeste 0 -- -- 57
2017-12-12 11:00:00 7.9 19 Oeste 31 Noroeste 0 -- -- 62
2017-12-12 10:00:00 6.3 14 Noroeste 26 Oeste 0 -- -- 67
2017-12-12 09:00:00 4.8 8 Noroeste 22 Oeste 0 -- -- 72
2017-12-12 08:00:00 5.6 16 Oeste 28 Oeste 0 -- -- 69
2017-12-12 07:00:00 6.1 15 Oeste 39 Oeste 0 -- -- 67
2017-12-12 06:00:00 6.3 32 Oeste 48 Oeste 0 -- -- 66
2017-12-12 05:00:00 6.2 25 Oeste 40 Oeste 0 -- -- 65
2017-12-12 04:00:00 6.8 14 Oeste 35 Oeste 0 -- -- 64
2017-12-12 03:00:00 7.3 23 Oeste 39 Oeste 0 -- -- 63
2017-12-12 02:00:00 6.7 17 Oeste 37 Oeste 0 -- -- 68
2017-12-12 01:00:00 7 13 Noroeste 27 Oeste 0 -- -- 71
2017-12-12 00:00:00 7.3 13 Oeste 35 Oeste 0 -- -- 71
2017-12-11 23:00:00 8 18 Oeste 32 Oeste 0 -- -- 68
2017-12-11 22:00:00 8.3 9 Oeste 40 Oeste 0 -- -- 67
2017-12-11 21:00:00 8.4 12 Oeste 24 Oeste 0 -- -- 69
2017-12-11 20:00:00 8.5 10 Oeste 14 Oeste 0 -- -- 73
2017-12-11 19:00:00 8.2 2 Sur 9 Oeste 0 -- -- 71
2017-12-11 18:00:00 9.3 8 Oeste 11 Oeste 0 -- -- 68
2017-12-11 17:00:00 12.1 10 Oeste 29 Oeste 0 -- -- 58
2017-12-11 16:00:00 12.3 18 Oeste 36 Oeste 0 -- -- 57
2017-12-11 15:00:00 11.5 24 Oeste 43 Noroeste 0 -- -- 63
2017-12-11 14:00:00 12.5 20 Oeste 46 Oeste 0 -- -- 59
2017-12-11 13:00:00 13.5 33 Oeste 56 Oeste 0 -- -- 53
2017-12-11 12:00:00 12.4 27 Oeste 42 Sudoeste 0 -- -- 60
2017-12-11 11:00:00 11 2 Este 17 Oeste 0 -- -- 70
2017-12-11 10:00:00 10.9 13 Oeste 30 Sudoeste 0 -- -- 67
2017-12-11 09:00:00 11.1 13 Oeste 30 Sudoeste 0 -- -- 69
2017-12-11 08:00:00 11.4 10 Sudoeste 28 Sudoeste 0 -- -- 80
2017-12-11 07:00:00 9.6 10 Noroeste 25 Oeste 0 -- -- 93
2017-12-11 06:00:00 7.7 3 Sudeste 6 Norte 0.2 -- -- 93
2017-12-11 05:00:00 7.6 2 Sur 16 Norte 0 -- -- 92
2017-12-11 04:00:00 7.4 6 Nordeste 17 Nordeste 0.2 -- -- 92
2017-12-11 03:00:00 7.1 3 Noroeste 15 Nordeste 0 -- -- 91
2017-12-11 02:00:00 7.1 12 Nordeste 17 Norte 0 -- -- 91
2017-12-11 01:00:00 6.6 11 Nordeste 16 Nordeste 0 -- -- 93
2017-12-11 00:00:00 6.8 4 Este 18 Nordeste 0 -- -- 91
2017-12-10 23:00:00 7.2 9 Nordeste 22 Nordeste 0 -- -- 91
2017-12-10 22:00:00 6.6 9 Nordeste 16 Nordeste 0 -- -- 91
2017-12-10 21:00:00 6.3 10 Nordeste 19 Nordeste 0 -- -- 93
2017-12-10 20:00:00 6.6 11 Nordeste 17 Nordeste 0 -- -- 93
2017-12-10 19:00:00 6.9 0 Calma 6 Norte 0.2 -- -- 90
2017-12-10 18:00:00 7.4 5 Norte 9 Noroeste 0 -- -- 85
2017-12-10 17:00:00 8.1 2 Norte 7 Nordeste 0 -- -- 84
2017-12-10 16:00:00 8.5 4 Sudeste 6 Sudeste 0 -- -- 84
2017-12-10 15:00:00 8.5 2 Este 7 Este 0 -- -- 82
2017-12-10 14:00:00 8 4 Nordeste 10 Nordeste 0 -- -- 83
2017-12-10 13:00:00 7.1 8 Este 12 Este 0 -- -- 86
2017-12-10 12:00:00 6.5 7 Este 10 Nordeste 0 -- -- 89
2017-12-10 11:00:00 5.3 5 Nordeste 13 Nordeste 0 -- -- 91
2017-12-10 10:00:00 4.3 4 Nordeste 6 Nordeste 0 -- -- 94
2017-12-10 09:00:00 3.8 3 Noroeste 10 Oeste 0 -- -- 94
2017-12-10 08:00:00 3.5 5 Oeste 9 Oeste 0 -- -- 94
2017-12-10 07:00:00 3.3 6 Oeste 10 Sudoeste 0 -- -- 93
2017-12-10 06:00:00 3.6 3 Oeste 5 Oeste 0 -- -- 91
2017-12-10 05:00:00 4.8 3 Oeste 10 Sudoeste 0 -- -- 89
2017-12-10 04:00:00 5.1 2 Nordeste 4 Nordeste 0 -- -- 88
2017-12-10 03:00:00 5.7 3 Nordeste 7 Nordeste 0 -- -- 86
2017-12-10 02:00:00 6 3 Nordeste 10 Nordeste 0 -- -- 82
2017-12-10 01:00:00 6.5 7 Nordeste 11 Nordeste 0 -- -- 82
2017-12-10 00:00:00 6.9 8 Nordeste 12 Nordeste 0 -- -- 79
2017-12-09 23:00:00 7.7 2 Nordeste 8 Nordeste 0 -- -- 77
2017-12-09 22:00:00 8.6 5 Oeste 13 Oeste 0 -- -- 67
2017-12-09 21:00:00 9.4 11 Sudoeste 18 Sudoeste 0 -- -- 60
2017-12-09 20:00:00 9.9 15 Sudoeste 21 Oeste 0 -- -- 54
2017-12-09 19:00:00 11 8 Oeste 15 Sudoeste 0 -- -- 50
2017-12-09 18:00:00 10.7 8 Sudoeste 17 Sudoeste 0 -- -- 50
2017-12-09 17:00:00 11 14 Oeste 28 Oeste 0 -- -- 51
2017-12-09 16:00:00 11.7 22 Oeste 41 Oeste 0 -- -- 47
2017-12-09 15:00:00 12.3 22 Oeste 39 Oeste 0 -- -- 45
2017-12-09 14:00:00 12.2 24 Oeste 38 Noroeste 0 -- -- 44
2017-12-09 13:00:00 12.2 22 Oeste 39 Noroeste 0 -- -- 42
2017-12-09 12:00:00 11 24 Oeste 38 Oeste 0 -- -- 46
2017-12-09 11:00:00 9.7 28 Oeste 39 Oeste 0 -- -- 53
2017-12-09 10:00:00 8.1 17 Oeste 33 Oeste 0 -- -- 60
2017-12-09 09:00:00 6.5 15 Noroeste 30 Oeste 0 -- -- 67
2017-12-09 08:00:00 5.9 8 Noroeste 31 Noroeste 0 -- -- 69
2017-12-09 07:00:00 6.9 15 Noroeste 38 Oeste 0 -- -- 67
2017-12-09 06:00:00 7.4 22 Oeste 44 Oeste 0 -- -- 67
2017-12-09 05:00:00 7.7 19 Noroeste 41 Oeste 0 -- -- 67
2017-12-09 04:00:00 8.3 22 Oeste 46 Oeste 0 -- -- 64
2017-12-09 03:00:00 8.3 27 Oeste 50 Oeste 0 -- -- 66
2017-12-09 02:00:00 8.5 31 Oeste 50 Oeste 0 -- -- 65
2017-12-09 01:00:00 9.4 32 Oeste 57 Oeste 0 -- -- 59
2017-12-09 00:00:00 10.3 27 Oeste 49 Oeste 0 -- -- 54
2017-12-08 23:00:00 10.3 30 Oeste 47 Oeste 0 -- -- 56
2017-12-08 22:00:00 10.4 28 Oeste 50 Oeste 0 -- -- 58
2017-12-08 21:00:00 10.7 27 Oeste 50 Oeste 0 -- -- 62
2017-12-08 20:00:00 11.4 33 Oeste 50 Oeste 0 -- -- 63
2017-12-08 19:00:00 11.9 31 Oeste 51 Oeste 0 -- -- 63
2017-12-08 18:00:00 12.4 23 Oeste 52 Oeste 0 -- -- 61
2017-12-08 17:00:00 13.9 39 Oeste 54 Oeste 0 -- -- 57
2017-12-08 16:00:00 7.9 12 Nordeste 18 Nordeste 0 -- -- 68
2017-12-08 15:00:00 7.3 10 Nordeste 14 Nordeste 0 -- -- 68
2017-12-08 14:00:00 5.7 6 Nordeste 14 Este 0 -- -- 73
2017-12-08 13:00:00 4.5 10 Este 15 Este 0 -- -- 76
2017-12-08 12:00:00 3.3 10 Nordeste 16 Este 0 -- -- 80
2017-12-08 11:00:00 1.2 11 Nordeste 16 Nordeste 0 -- -- 90
2017-12-08 10:00:00 -1.4 10 Nordeste 13 Nordeste 0 -- -- 94
2017-12-08 09:00:00 -2 4 Nordeste 13 Oeste 0 -- -- 94
2017-12-08 08:00:00 -2.7 3 Sudeste 5 Nordeste 0 -- -- 93
2017-12-08 07:00:00 -2.4 0 Calma 11 Nordeste 0 -- -- 93
2017-12-08 06:00:00 -2.5 3 Nordeste 8 Nordeste 0 -- -- 93
2017-12-08 05:00:00 -1.9 4 Nordeste 8 Nordeste 0 -- -- 93
2017-12-08 04:00:00 -1.3 4 Oeste 9 Oeste 0 -- -- 94
2017-12-08 03:00:00 -2.2 7 Oeste 9 Noroeste 0 -- -- 95
2017-12-08 02:00:00 -2.9 0 Calma 8 Oeste 0 -- -- 94
2017-12-08 01:00:00 -3.2 3 Oeste 9 Oeste 0 -- -- 93
2017-12-08 00:00:00 -2.6 5 Oeste 7 Oeste 0 -- -- 93
2017-12-07 23:00:00 -1.8 0 Calma 5 Noroeste 0 -- -- 92
2017-12-07 22:00:00 -1.5 3 Nordeste 9 Oeste 0 -- -- 90
2017-12-07 21:00:00 -0.9 4 Oeste 9 Oeste 0 -- -- 89
2017-12-07 20:00:00 0.1 8 Oeste 12 Oeste 0 -- -- 87
2017-12-07 19:00:00 0.2 2 Oeste 5 Noroeste 0 -- -- 86
2017-12-07 18:00:00 1.8 0 Calma 8 Nordeste 0 -- -- 81
2017-12-07 17:00:00 4.2 6 Este 8 Este 0 -- -- 76
2017-12-07 16:00:00 4.5 5 Nordeste 9 Este 0 -- -- 74
2017-12-07 15:00:00 4.2 6 Este 11 Nordeste 0 -- -- 74
2017-12-07 14:00:00 3.5 6 Nordeste 12 Nordeste 0 -- -- 76
2017-12-07 13:00:00 2 7 Nordeste 12 Nordeste 0 -- -- 85
2017-12-07 12:00:00 0.4 10 Nordeste 13 Nordeste 0 -- -- 89
2017-12-07 11:00:00 -1.9 5 Nordeste 7 Nordeste 0 -- -- 92
2017-12-07 10:00:00 -3.1 0 Calma 6 Oeste 0 -- -- 93
2017-12-07 09:00:00 -4.2 3 Oeste 11 Oeste 0 -- -- 93
2017-12-07 08:00:00 -4.4 8 Oeste 12 Oeste 0 -- -- 94
2017-12-07 07:00:00 -5.6 3 Noroeste 6 Oeste 0 -- -- 93
2017-12-07 06:00:00 -5.2 3 Oeste 9 Oeste 0 -- -- 93
2017-12-07 05:00:00 -5 3 Oeste 9 Oeste 0 -- -- 93
2017-12-07 04:00:00 -4.6 5 Oeste 6 Oeste 0 -- -- 94
2017-12-07 03:00:00 -4 4 Noroeste 7 Oeste 0 -- -- 93
2017-12-07 02:00:00 -3.7 5 Oeste 6 Noroeste 0 -- -- 93
2017-12-07 01:00:00 -3.2 4 Oeste 6 Noroeste 0 -- -- 92
2017-12-07 00:00:00 -2.8 4 Oeste 6 Oeste 0 -- -- 91
2017-12-06 23:00:00 -2.5 3 Noroeste 9 Oeste 0 -- -- 90
2017-12-06 22:00:00 -1.8 4 Oeste 8 Oeste 0 -- -- 88
2017-12-06 21:00:00 -0.7 6 Oeste 10 Oeste 0 -- -- 85
2017-12-06 20:00:00 0.3 5 Noroeste 8 Noroeste 0 -- -- 84
2017-12-06 19:00:00 1.5 4 Oeste 7 Oeste 0 -- -- 80
2017-12-06 18:00:00 3.1 4 Oeste 6 Oeste 0 -- -- 74
2017-12-06 17:00:00 6.8 4 Este 9 Este 0 -- -- 64
2017-12-06 16:00:00 7.5 8 Este 12 Este 0 -- -- 62
2017-12-06 15:00:00 7.1 7 Este 10 Este 0 -- -- 64
2017-12-06 14:00:00 6 7 Este 11 Nordeste 0 -- -- 66
2017-12-06 13:00:00 4 9 Nordeste 13 Nordeste 0 -- -- 73
2017-12-06 12:00:00 1.4 9 Nordeste 12 Nordeste 0 -- -- 81
2017-12-06 11:00:00 -1 8 Nordeste 11 Nordeste 0 -- -- 86
2017-12-06 10:00:00 -3.4 4 Este 6 Nordeste 0 -- -- 93
2017-12-06 09:00:00 -5.4 5 Oeste 7 Noroeste 0 -- -- 93
2017-12-06 08:00:00 -5.6 4 Oeste 5 Noroeste 0 -- -- 93
2017-12-06 07:00:00 -5.1 3 Noroeste 7 Oeste 0 -- -- 94
2017-12-06 06:00:00 -4.8 3 Noroeste 6 Oeste 0 -- -- 93
2017-12-06 05:00:00 -4.5 0 Calma 4 Noroeste 0 -- -- 93
2017-12-06 04:00:00 -3.8 2 Oeste 5 Noroeste 0 -- -- 93
2017-12-06 03:00:00 -3.5 0 Calma 5 Oeste 0 -- -- 93
2017-12-06 02:00:00 -2.7 4 Oeste 8 Noroeste 0 -- -- 93
2017-12-06 01:00:00 -2.9 0 Calma 6 Oeste 0 -- -- 92
2017-12-06 00:00:00 -2.4 0 Calma 7 Noroeste 0 -- -- 91
2017-12-05 23:00:00 -1.8 3 Oeste 6 Oeste 0 -- -- 90
2017-12-05 22:00:00 -1 5 Noroeste 9 Oeste 0 -- -- 88
2017-12-05 21:00:00 0.1 6 Oeste 9 Oeste 0 -- -- 86
2017-12-05 20:00:00 1.1 3 Oeste 8 Oeste 0 -- -- 84
2017-12-05 19:00:00 2.2 2 Oeste 5 Oeste 0 -- -- 81
2017-12-05 18:00:00 4.1 3 Oeste 5 Noroeste 0 -- -- 73
2017-12-05 17:00:00 7.5 4 Nordeste 10 Este 0 -- -- 65
2017-12-05 16:00:00 8.2 6 Este 11 Este 0 -- -- 62
2017-12-05 15:00:00 7.9 7 Este 10 Este 0 -- -- 64
2017-12-05 14:00:00 6.8 8 Este 12 Este 0 -- -- 67
2017-12-05 13:00:00 5.2 7 Este 12 Este 0 -- -- 70
2017-12-05 12:00:00 2.7 8 Nordeste 11 Nordeste 0 -- -- 76
2017-12-05 11:00:00 0.3 6 Este 9 Este 0 -- -- 82
2017-12-05 10:00:00 -1.8 3 Este 5 Este 0 -- -- 92
2017-12-05 09:00:00 -4.3 3 Este 9 Oeste 0 -- -- 94
2017-12-05 08:00:00 -4 6 Oeste 10 Oeste 0 -- -- 94
2017-12-05 07:00:00 -4.1 2 Oeste 8 Oeste 0 -- -- 93
2017-12-05 06:00:00 -3.8 0 Calma 8 Oeste 0 -- -- 93
2017-12-05 05:00:00 -3.5 5 Oeste 8 Oeste 0 -- -- 92
2017-12-05 04:00:00 -3 3 Oeste 6 Oeste 0 -- -- 92
2017-12-05 03:00:00 -2.8 2 Nordeste 8 Oeste 0 -- -- 91
2017-12-05 02:00:00 -2 4 Oeste 8 Oeste 0 -- -- 90
2017-12-05 01:00:00 -1.6 6 Oeste 8 Oeste 0 -- -- 89
2017-12-05 00:00:00 -1.4 0 Calma 10 Oeste 0 -- -- 85
2017-12-04 23:00:00 -0.7 6 Oeste 10 Oeste 0 -- -- 85
2017-12-04 22:00:00 -0.1 5 Oeste 6 Oeste 0 -- -- 81
2017-12-04 21:00:00 1 2 Noroeste 7 Noroeste 0 -- -- 77
2017-12-04 20:00:00 1.9 4 Noroeste 8 Oeste 0 -- -- 75
2017-12-04 19:00:00 3.9 2 Oeste 5 Oeste 0 -- -- 70
2017-12-04 18:00:00 6.1 0 Calma 13 Este 0 -- -- 61
2017-12-04 17:00:00 8.5 8 Nordeste 10 Nordeste 0 -- -- 57
2017-12-04 16:00:00 8.9 6 Nordeste 9 Nordeste 0 -- -- 54
2017-12-04 15:00:00 8.4 6 Este 10 Nordeste 0 -- -- 54
2017-12-04 14:00:00 7.2 8 Este 11 Este 0 -- -- 54
2017-12-04 13:00:00 5.3 5 Este 12 Nordeste 0 -- -- 54
2017-12-04 12:00:00 2.7 7 Nordeste 13 Nordeste 0 -- -- 57
2017-12-04 11:00:00 -0.1 5 Nordeste 11 Nordeste 0 -- -- 65
2017-12-04 10:00:00 -2.7 3 Este 9 Este 0 -- -- 76
2017-12-04 09:00:00 -5.5 3 Noroeste 9 Oeste 0 -- -- 85
2017-12-04 08:00:00 -6.1 6 Oeste 9 Oeste 0 -- -- 84
2017-12-04 07:00:00 -5.9 0 Calma 7 Noroeste 0 -- -- 83
2017-12-04 06:00:00 -5.1 0 Calma 8 Noroeste 0 -- -- 81
2017-12-04 05:00:00 -4.8 3 Oeste 7 Oeste 0 -- -- 82
2017-12-04 04:00:00 -3.9 3 Noroeste 8 Oeste 0 -- -- 79
2017-12-04 03:00:00 -3.2 0 Calma 8 Noroeste 0 -- -- 76
2017-12-04 02:00:00 -2.1 7 Noroeste 15 Sudoeste 0 -- -- 73
2017-12-04 01:00:00 -0.8 10 Oeste 15 Oeste 0 -- -- 70
2017-12-04 00:00:00 -0.8 4 Oeste 15 Oeste 0 -- -- 64
2017-12-03 23:00:00 0 9 Oeste 19 Sudoeste 0 -- -- 56
2017-12-03 22:00:00 0.8 11 Oeste 21 Oeste 0 -- -- 50
2017-12-03 21:00:00 1.6 13 Oeste 18 Oeste 0 -- -- 47
2017-12-03 20:00:00 2.7 13 Sudoeste 19 Sudoeste 0 -- -- 44
2017-12-03 19:00:00 2.8 5 Oeste 13 Oeste 0 -- -- 42
2017-12-03 18:00:00 5 10 Oeste 13 Oeste 0 -- -- 39
2017-12-03 17:00:00 7.9 7 Oeste 12 Oeste 0 -- -- 30
2017-12-03 16:00:00 10.4 6 Oeste 15 Noroeste 0 -- -- 25
2017-12-03 15:00:00 10.1 4 Sudeste 15 Sudoeste 0 -- -- 28
2017-12-03 14:00:00 9.2 8 Sudoeste 22 Oeste 0 -- -- 30
2017-12-03 13:00:00 7.4 9 Oeste 17 Sudoeste 0 -- -- 35
2017-12-03 12:00:00 5.2 9 Oeste 18 Sudoeste 0 -- -- 40
2017-12-03 11:00:00 3.7 5 Sur 12 Sudoeste 0 -- -- 47
2017-12-03 10:00:00 0.1 8 Sudoeste 12 Sudoeste 0 -- -- 60
2017-12-03 09:00:00 -3 5 Oeste 12 Oeste 0 -- -- 70
2017-12-03 08:00:00 -3.6 5 Noroeste 13 Oeste 0 -- -- 69
2017-12-03 07:00:00 -3.2 9 Oeste 15 Sudoeste 0 -- -- 69
2017-12-03 06:00:00 -2.5 9 Oeste 13 Oeste 0 -- -- 66
2017-12-03 05:00:00 -1.9 6 Oeste 9 Noroeste 0 -- -- 59
2017-12-03 04:00:00 0.4 5 Oeste 18 Oeste 0 -- -- 49
2017-12-03 03:00:00 2.6 9 Oeste 22 Oeste 0 -- -- 41
2017-12-03 02:00:00 2.8 6 Noroeste 24 Oeste 0 -- -- 42
2017-12-03 01:00:00 2.7 13 Oeste 37 Noroeste 0 -- -- 45
2017-12-03 00:00:00 2.9 22 Noroeste 42 Oeste 0 -- -- 46
2017-12-02 23:00:00 3.1 28 Oeste 47 Oeste 0 -- -- 45
2017-12-02 22:00:00 3.6 27 Oeste 46 Oeste 0 -- -- 42
2017-12-02 21:00:00 3.8 31 Oeste 48 Oeste 0 -- -- 41
2017-12-02 20:00:00 4.2 27 Oeste 39 Oeste 0 -- -- 38
2017-12-02 19:00:00 4.6 25 Oeste 39 Oeste 0 -- -- 38
2017-12-02 18:00:00 6.2 18 Oeste 35 Noroeste 0 -- -- 30
2017-12-02 17:00:00 8.7 22 Noroeste 38 Noroeste 0 -- -- 22
2017-12-02 16:00:00 10 21 Noroeste 43 Noroeste 0 -- -- 21
2017-12-02 15:00:00 10.4 22 Noroeste 52 Noroeste 0 -- -- 22
2017-12-02 14:00:00 10.1 22 Noroeste 53 Noroeste 0 -- -- 24
2017-12-02 13:00:00 8.5 31 Oeste 57 Oeste 0 -- -- 34
2017-12-02 12:00:00 7.6 34 Oeste 56 Oeste 0 -- -- 37
2017-12-02 11:00:00 6.2 28 Oeste 57 Oeste 0 -- -- 42
2017-12-02 10:00:00 4.1 30 Oeste 48 Oeste 0 -- -- 50
2017-12-02 09:00:00 2.6 26 Oeste 45 Noroeste 0 -- -- 56
2017-12-02 08:00:00 2.5 28 Oeste 42 Oeste 0 -- -- 60
2017-12-02 07:00:00 2.9 29 Oeste 47 Oeste 0 -- -- 62
2017-12-02 06:00:00 2.9 31 Oeste 48 Oeste 0 -- -- 67
2017-12-02 05:00:00 2.9 29 Oeste 49 Oeste 0 -- -- 70
2017-12-02 04:00:00 3.2 32 Oeste 49 Oeste 0 -- -- 70
2017-12-02 03:00:00 2.6 18 Oeste 39 Noroeste 0 -- -- 71
2017-12-02 02:00:00 2.8 27 Oeste 44 Oeste 0 -- -- 71
2017-12-02 01:00:00 2.7 29 Oeste 47 Oeste 0 -- -- 71
2017-12-02 00:00:00 2.8 32 Oeste 50 Noroeste 0 -- -- 66
2017-12-01 23:00:00 2.8 29 Oeste 46 Noroeste 0 -- -- 63
2017-12-01 22:00:00 3 26 Oeste 43 Oeste 0 -- -- 60
2017-12-01 21:00:00 3 30 Oeste 49 Oeste 0 -- -- 57
2017-12-01 20:00:00 3.3 30 Oeste 49 Oeste 0 -- -- 53
2017-12-01 19:00:00 4 27 Oeste 44 Oeste 0 -- -- 50
2017-12-01 18:00:00 5.3 27 Oeste 51 Oeste 0 -- -- 39
2017-12-01 17:00:00 7.3 30 Noroeste 54 Oeste 0 -- -- 34
2017-12-01 16:00:00 9 28 Noroeste 58 Oeste 0 -- -- 30
2017-12-01 15:00:00 10.6 21 Noroeste 47 Oeste 0 -- -- 25
2017-12-01 14:00:00 8.4 30 Oeste 53 Oeste 0 -- -- 45
2017-12-01 13:00:00 8.8 17 Oeste 34 Oeste 0 -- -- 57
2017-12-01 12:00:00 6.3 19 Oeste 36 Oeste 0.2 -- -- 76
2017-12-01 11:00:00 6.4 27 Oeste 44 Oeste 0 -- -- 77
2017-12-01 10:00:00 7 19 Oeste 39 Sudoeste 0 -- -- 59
2017-12-01 09:00:00 6.8 26 Sudoeste 36 Oeste 0 -- -- 63
2017-12-01 08:00:00 6.9 17 Oeste 37 Oeste 0 -- -- 66
2017-12-01 07:00:00 6.7 30 Oeste 58 Oeste 0 -- -- 65
2017-12-01 06:00:00 7.5 30 Oeste 49 Oeste 0 -- -- 64
2017-12-01 05:00:00 6.2 25 Sudoeste 41 Sudoeste 0 -- -- 67
2017-12-01 04:00:00 6.4 24 Oeste 41 Sudoeste 0 -- -- 67
2017-12-01 03:00:00 6.1 14 Oeste 36 Oeste 0 -- -- 69
2017-12-01 02:00:00 5.6 22 Sudoeste 34 Sudoeste 0 -- -- 69
2017-12-01 01:00:00 5.7 22 Sudoeste 37 Oeste 0 -- -- 69
2017-12-01 00:00:00 6.5 16 Sudoeste 37 Oeste 0 -- -- 65
2017-11-30 23:00:00 7.1 18 Oeste 40 Oeste 0 -- -- 63
2017-11-30 22:00:00 7.4 25 Oeste 50 Oeste 0 -- -- 64
2017-11-30 21:00:00 8 30 Oeste 47 Oeste 0 -- -- 57
2017-11-30 20:00:00 7.4 23 Oeste 41 Oeste 0 -- -- 58
2017-11-30 19:00:00 7.9 28 Oeste 42 Oeste 0 -- -- 51
2017-11-30 18:00:00 8.9 28 Oeste 41 Oeste 0 -- -- 47
2017-11-30 17:00:00 10.4 21 Oeste 40 Oeste 0 -- -- 42
2017-11-30 16:00:00 11.7 26 Oeste 41 Oeste 0 -- -- 37
2017-11-30 15:00:00 12 21 Oeste 35 Oeste 0 -- -- 33
2017-11-30 14:00:00 11.1 11 Noroeste 24 Oeste 0 -- -- 35
2017-11-30 13:00:00 9.2 15 Oeste 25 Noroeste 0 -- -- 44
2017-11-30 12:00:00 7.2 10 Oeste 19 Oeste 0 -- -- 54
2017-11-30 11:00:00 4.6 6 Este 12 Nordeste 0 -- -- 65
2017-11-30 10:00:00 1.7 7 Sudoeste 12 Sudoeste 0 -- -- 73
2017-11-30 09:00:00 -1.4 5 Sudoeste 9 Sudoeste 0 -- -- 84
2017-11-30 08:00:00 -1.6 7 Nordeste 10 Nordeste 0 -- -- 83
2017-11-30 07:00:00 -1.2 2 Este 15 Sudoeste 0 -- -- 83
2017-11-30 06:00:00 -1.2 6 Oeste 10 Oeste 0 -- -- 83
2017-11-30 05:00:00 0.2 0 Calma 9 Sudoeste 0 -- -- 79
2017-11-30 04:00:00 0.7 7 Oeste 11 Oeste 0 -- -- 78
2017-11-30 03:00:00 1.6 5 Oeste 13 Oeste 0 -- -- 77
2017-11-30 02:00:00 2.7 3 Sur 11 Oeste 0 -- -- 74
2017-11-30 01:00:00 3.4 5 Noroeste 22 Noroeste 0 -- -- 71
2017-11-30 00:00:00 4.6 8 Noroeste 22 Noroeste 0 -- -- 66
2017-11-29 23:00:00 4.9 13 Oeste 22 Noroeste 0 -- -- 66
2017-11-29 22:00:00 5.5 9 Oeste 23 Oeste 0 -- -- 65
2017-11-29 21:00:00 7.2 19 Oeste 29 Noroeste 0 -- -- 62
2017-11-29 20:00:00 7.6 17 Oeste 28 Oeste 0 -- -- 62
2017-11-29 19:00:00 8.5 14 Oeste 25 Oeste 0 -- -- 58
2017-11-29 18:00:00 7.7 3 Oeste 12 Nordeste 0 -- -- 67
2017-11-29 17:00:00 10.6 5 Nordeste 12 Nordeste 0 -- -- 59
2017-11-29 16:00:00 10.9 5 Nordeste 13 Nordeste 0 -- -- 58
2017-11-29 15:00:00 10.5 8 Nordeste 13 Nordeste 0 -- -- 60
2017-11-29 14:00:00 9.9 9 Este 13 Este 0 -- -- 61
2017-11-29 13:00:00 7.9 8 Este 13 Este 0 -- -- 67
2017-11-29 12:00:00 5.6 8 Nordeste 12 Nordeste 0 -- -- 73
2017-11-29 11:00:00 2.7 8 Nordeste 12 Nordeste 0 -- -- 81
2017-11-29 10:00:00 0.7 4 Este 6 Este 0 -- -- 88
2017-11-29 09:00:00 -2.3 0 Calma 6 Oeste 0 -- -- 93
2017-11-29 08:00:00 -2.5 2 Este 13 Oeste 0 -- -- 91
2017-11-29 07:00:00 -2.4 5 Oeste 9 Oeste 0 -- -- 91
2017-11-29 06:00:00 -2 0 Calma 9 Oeste 0 -- -- 91
2017-11-29 05:00:00 -1.8 0 Calma 7 Nordeste 0 -- -- 89
2017-11-29 04:00:00 -0.8 3 Nordeste 8 Nordeste 0 -- -- 88
2017-11-29 03:00:00 -0.3 2 Oeste 13 Oeste 0 -- -- 86
2017-11-29 02:00:00 0.3 3 Oeste 9 Nordeste 0 -- -- 85
2017-11-29 01:00:00 1.8 4 Noroeste 8 Oeste 0 -- -- 83
2017-11-29 00:00:00 2 4 Noroeste 14 Oeste 0 -- -- 80
2017-11-28 23:00:00 3.3 8 Oeste 18 Sudoeste 0 -- -- 75
2017-11-28 22:00:00 5.3 13 Sudoeste 23 Sudoeste 0 -- -- 69
2017-11-28 21:00:00 5.3 14 Sudoeste 21 Sudoeste 0 -- -- 68
2017-11-28 20:00:00 5.7 10 Oeste 16 Oeste 0 -- -- 66
2017-11-28 19:00:00 4.7 8 Oeste 11 Oeste 0 -- -- 71
2017-11-28 18:00:00 6.6 3 Noroeste 7 Oeste 0 -- -- 68
2017-11-28 17:00:00 10.6 2 Este 8 Nordeste 0 -- -- 57
2017-11-28 16:00:00 10.8 6 Este 10 Este 0 -- -- 56
2017-11-28 15:00:00 10.8 6 Este 13 Este 0 -- -- 57
2017-11-28 14:00:00 9.2 9 Este 14 Este 0 -- -- 62
2017-11-28 13:00:00 8 6 Este 13 Sur 0 -- -- 65
2017-11-28 12:00:00 5.9 6 Sur 14 Sur 0 -- -- 70
2017-11-28 11:00:00 2.8 7 Sudoeste 15 Sudoeste 0 -- -- 82
2017-11-28 10:00:00 0.2 7 Sudoeste 10 Sudoeste 0 -- -- 89
2017-11-28 09:00:00 -1.6 6 Oeste 10 Oeste 0 -- -- 93
2017-11-28 08:00:00 -2.1 8 Oeste 15 Oeste 0 -- -- 93
2017-11-28 07:00:00 -2.2 5 Oeste 9 Oeste 0 -- -- 93
2017-11-28 06:00:00 -1.5 0 Calma 11 Oeste 0 -- -- 92
2017-11-28 05:00:00 -1.5 6 Oeste 12 Oeste 0 -- -- 93
2017-11-28 04:00:00 -1.4 4 Noroeste 10 Oeste 0 -- -- 92
2017-11-28 03:00:00 -1.7 5 Oeste 7 Oeste 0 -- -- 92
2017-11-28 02:00:00 -0.7 4 Oeste 6 Oeste 0 -- -- 92
2017-11-28 01:00:00 -0.5 4 Oeste 8 Oeste 0 -- -- 91
2017-11-28 00:00:00 0 4 Oeste 7 Oeste 0 -- -- 89
2017-11-27 23:00:00 0.6 3 Noroeste 6 Noroeste 0 -- -- 87
2017-11-27 22:00:00 1.4 3 Oeste 6 Noroeste 0 -- -- 84
2017-11-27 21:00:00 2.5 4 Oeste 7 Oeste 0 -- -- 81
2017-11-27 20:00:00 3.5 0 Calma 6 Oeste 0 -- -- 78
2017-11-27 19:00:00 4.7 2 Oeste 5 Noroeste 0 -- -- 73
2017-11-27 18:00:00 6.9 0 Calma 10 Este 0 -- -- 66
2017-11-27 17:00:00 8.8 9 Este 13 Nordeste 0 -- -- 60
2017-11-27 16:00:00 10.1 7 Este 11 Este 0 -- -- 56
2017-11-27 15:00:00 10.2 6 Este 14 Nordeste 0 -- -- 56
2017-11-27 14:00:00 8.8 5 Nordeste 13 Nordeste 0 -- -- 61
2017-11-27 13:00:00 7.6 7 Este 13 Este 0 -- -- 66
2017-11-27 12:00:00 5.7 8 Este 14 Nordeste 0 -- -- 72
2017-11-27 11:00:00 3.4 7 Este 11 Este 0 -- -- 80
2017-11-27 10:00:00 0.5 2 Este 4 Sur 0 -- -- 92
2017-11-27 09:00:00 -1.8 0 Calma 9 Oeste 0 -- -- 92
2017-11-27 08:00:00 -1.9 7 Oeste 10 Oeste 0 -- -- 93
2017-11-27 07:00:00 -2.2 3 Noroeste 6 Oeste 0 -- -- 91
2017-11-27 06:00:00 -1.4 4 Nordeste 8 Noroeste 0 -- -- 90
2017-11-27 05:00:00 -0.7 0 Calma 8 Oeste 0 -- -- 87
2017-11-27 04:00:00 1 7 Oeste 12 Oeste 0 -- -- 86
2017-11-27 03:00:00 1.3 5 Oeste 14 Oeste 0 -- -- 84
2017-11-27 02:00:00 2.1 13 Oeste 20 Sudoeste 0 -- -- 82
2017-11-27 01:00:00 3.3 14 Sudoeste 19 Sudoeste 0 -- -- 78
2017-11-27 00:00:00 4.1 11 Sudoeste 17 Sudoeste 0 -- -- 75
2017-11-26 23:00:00 4.5 11 Oeste 16 Sudoeste 0 -- -- 72
2017-11-26 22:00:00 4.2 8 Oeste 15 Sudoeste 0 -- -- 71
2017-11-26 21:00:00 6.2 11 Sudoeste 19 Sudoeste 0 -- -- 66
2017-11-26 20:00:00 7.7 12 Sudoeste 24 Sudoeste 0 -- -- 57
2017-11-26 19:00:00 9.4 14 Sudoeste 27 Sudoeste 0 -- -- 53
2017-11-26 18:00:00 10.9 15 Sudoeste 27 Oeste 0 -- -- 47
2017-11-26 17:00:00 13.1 17 Oeste 32 Oeste 0 -- -- 41
2017-11-26 16:00:00 14 21 Oeste 36 Oeste 0 -- -- 39
2017-11-26 15:00:00 14.1 15 Oeste 28 Oeste 0 -- -- 38
2017-11-26 14:00:00 13.5 17 Oeste 30 Oeste 0 -- -- 42
2017-11-26 13:00:00 12.6 12 Noroeste 27 Noroeste 0 -- -- 45
2017-11-26 12:00:00 11.3 8 Norte 31 Norte 0 -- -- 55
2017-11-26 11:00:00 9.2 8 Noroeste 18 Noroeste 0 -- -- 62
2017-11-26 10:00:00 5.7 7 Nordeste 12 Nordeste 0 -- -- 72
2017-11-26 09:00:00 4.1 5 Nordeste 9 Nordeste 0 -- -- 77
2017-11-26 08:00:00 4.4 6 Norte 16 Noroeste 0 -- -- 75
2017-11-26 07:00:00 5.5 9 Noroeste 25 Noroeste 0 -- -- 70
2017-11-26 06:00:00 6.4 13 Noroeste 36 Oeste 0 -- -- 65
2017-11-26 05:00:00 7 19 Oeste 33 Oeste 0 -- -- 63
2017-11-26 04:00:00 7.1 18 Oeste 41 Noroeste 0 -- -- 61
2017-11-26 03:00:00 7.5 25 Oeste 39 Oeste 0 -- -- 59
2017-11-26 02:00:00 7.7 24 Oeste 44 Oeste 0 -- -- 58
2017-11-26 01:00:00 8 27 Oeste 47 Oeste 0 -- -- 56
2017-11-26 00:00:00 8.3 28 Oeste 44 Oeste 0 -- -- 53
2017-11-25 23:00:00 8.5 18 Oeste 44 Oeste 0 -- -- 53
2017-11-25 22:00:00 9.4 23 Oeste 48 Oeste 0 -- -- 51
2017-11-25 21:00:00 10.1 24 Oeste 50 Oeste 0 -- -- 52
2017-11-25 20:00:00 11 33 Oeste 58 Oeste 0 -- -- 50
2017-11-25 19:00:00 11.6 26 Oeste 55 Oeste 0 -- -- 51
2017-11-25 18:00:00 13 27 Oeste 60 Oeste 0 -- -- 51
2017-11-25 17:00:00 14.8 26 Oeste 48 Oeste 0 -- -- 48
2017-11-25 16:00:00 16.2 30 Oeste 54 Oeste 0 -- -- 49
2017-11-25 15:00:00 16.6 26 Oeste 47 Oeste 0 -- -- 51
2017-11-25 14:00:00 16.3 24 Oeste 55 Oeste 0 -- -- 54
2017-11-25 13:00:00 15.9 35 Oeste 50 Oeste 0 -- -- 56
2017-11-25 12:00:00 16.2 26 Oeste 45 Oeste 0 -- -- 57
2017-11-25 11:00:00 14.7 15 Oeste 32 Noroeste 0 -- -- 67
2017-11-25 10:00:00 11.6 8 Oeste 20 Oeste 0 -- -- 81
2017-11-25 09:00:00 8.8 10 Oeste 14 Oeste 0 -- -- 83
2017-11-25 08:00:00 6.8 2 Oeste 9 Oeste 0 -- -- 88
2017-11-25 07:00:00 6.5 2 Nordeste 9 Oeste 0 -- -- 87
2017-11-25 06:00:00 7.3 5 Oeste 10 Noroeste 0 -- -- 86
2017-11-25 05:00:00 7.2 7 Oeste 12 Oeste 0 -- -- 87
2017-11-25 04:00:00 7 4 Noroeste 9 Noroeste 0 -- -- 86
2017-11-25 03:00:00 7.5 2 Sudeste 9 Oeste 0 -- -- 82
2017-11-25 02:00:00 8.2 6 Oeste 10 Noroeste 0 -- -- 80
2017-11-25 01:00:00 8.7 5 Noroeste 11 Noroeste 0 -- -- 78
2017-11-25 00:00:00 8.5 4 Noroeste 9 Noroeste 0 -- -- 80
2017-11-24 23:00:00 9.6 3 Oeste 5 Oeste 0 -- -- 76
2017-11-24 22:00:00 10.9 3 Nordeste 11 Oeste 0 -- -- 72
2017-11-24 21:00:00 11.4 4 Oeste 6 Noroeste 0 -- -- 70
2017-11-24 20:00:00 12.7 3 Noroeste 9 Oeste 0 -- -- 65
2017-11-24 19:00:00 12.8 5 Oeste 6 Oeste 0 -- -- 65
2017-11-24 18:00:00 13.6 3 Oeste 8 Oeste 0 -- -- 62
2017-11-24 17:00:00 15 4 Oeste 8 Sudoeste 0 -- -- 59
2017-11-24 16:00:00 16 4 Este 10 Nordeste 0 -- -- 56
2017-11-24 15:00:00 15.6 7 Nordeste 9 Nordeste 0 -- -- 56
2017-11-24 14:00:00 14.4 4 Nordeste 8 Este 0 -- -- 59
2017-11-24 13:00:00 13.2 6 Este 12 Nordeste 0 -- -- 60
2017-11-24 12:00:00 11.9 6 Este 11 Nordeste 0 -- -- 69
2017-11-24 11:00:00 8.8 9 Nordeste 12 Nordeste 0 -- -- 83
2017-11-24 10:00:00 7 0 Calma 6 Nordeste 0 -- -- 88
2017-11-24 09:00:00 6.8 4 Noroeste 7 Oeste 0 -- -- 89
2017-11-24 08:00:00 6 3 Nordeste 15 Nordeste 0 -- -- 88
2017-11-24 07:00:00 5.1 4 Oeste 12 Sur 0 -- -- 90
2017-11-24 06:00:00 5.8 7 Oeste 14 Oeste 0 -- -- 91
2017-11-24 05:00:00 5.3 3 Oeste 5 Noroeste 0 -- -- 90
2017-11-24 04:00:00 5.1 4 Noroeste 6 Oeste 0 -- -- 91
2017-11-24 03:00:00 5 2 Noroeste 6 Oeste 0 -- -- 90
2017-11-24 02:00:00 4.9 2 Nordeste 6 Noroeste 0 -- -- 90
2017-11-24 01:00:00 4.4 4 Oeste 9 Oeste 0 -- -- 91
2017-11-24 00:00:00 4.9 5 Oeste 9 Noroeste 0 -- -- 91
2017-11-23 23:00:00 5.7 0 Calma 8 Noroeste 0 -- -- 88
2017-11-23 22:00:00 6.3 6 Noroeste 9 Oeste 0 -- -- 88
2017-11-23 21:00:00 7.4 5 Oeste 8 Noroeste 0 -- -- 86
2017-11-23 20:00:00 8.1 5 Noroeste 12 Oeste 0 -- -- 82
2017-11-23 19:00:00 9.4 8 Oeste 12 Oeste 0 -- -- 80
2017-11-23 18:00:00 10.5 5 Noroeste 8 Oeste 0 -- -- 76
2017-11-23 17:00:00 12.8 4 Noroeste 7 Nordeste 0 -- -- 68
2017-11-23 16:00:00 14 2 Nordeste 9 Nordeste 0 -- -- 61
2017-11-23 15:00:00 13.7 0 Calma 5 Nordeste 0 -- -- 60
2017-11-23 14:00:00 12.8 4 Nordeste 10 Nordeste 0 -- -- 60
2017-11-23 13:00:00 11.2 6 Este 12 Norte 0 -- -- 61
2017-11-23 12:00:00 9.2 7 Nordeste 11 Nordeste 0 -- -- 71
2017-11-23 11:00:00 6.7 4 Nordeste 9 Este 0 -- -- 80
2017-11-23 10:00:00 4.4 6 Este 11 Nordeste 0 -- -- 88
2017-11-23 09:00:00 1.9 6 Nordeste 12 Nordeste 0 -- -- 94
2017-11-23 08:00:00 0.9 6 Oeste 11 Oeste 0 -- -- 93
2017-11-23 07:00:00 0.6 3 Nordeste 9 Noroeste 0 -- -- 93
2017-11-23 06:00:00 1 5 Nordeste 9 Nordeste 0 -- -- 93
2017-11-23 05:00:00 0.6 5 Este 7 Noroeste 0 -- -- 93
2017-11-23 04:00:00 0.9 0 Calma 7 Nordeste 0 -- -- 93
2017-11-23 03:00:00 1.1 3 Noroeste 6 Noroeste 0 -- -- 92
2017-11-23 02:00:00 1.3 5 Oeste 9 Oeste 0 -- -- 92
2017-11-23 01:00:00 1.4 6 Noroeste 10 Noroeste 0 -- -- 90
2017-11-23 00:00:00 2 8 Noroeste 10 Oeste 0 -- -- 89
2017-11-22 23:00:00 3 4 Nordeste 9 Noroeste 0 -- -- 86
2017-11-22 22:00:00 3.7 3 Noroeste 9 Noroeste 0 -- -- 84
2017-11-22 21:00:00 4.5 4 Oeste 10 Noroeste 0 -- -- 82
2017-11-22 20:00:00 6 3 Oeste 8 Oeste 0 -- -- 76
2017-11-22 19:00:00 7.1 2 Noroeste 6 Noroeste 0 -- -- 72
2017-11-22 18:00:00 8.7 3 Oeste 5 Noroeste 0 -- -- 66
2017-11-22 17:00:00 12.4 3 Nordeste 8 Nordeste 0 -- -- 55
2017-11-22 16:00:00 12.8 5 Nordeste 9 Nordeste 0 -- -- 56
2017-11-22 15:00:00 12.2 7 Nordeste 10 Nordeste 0 -- -- 60
2017-11-22 14:00:00 10.9 8 Nordeste 11 Nordeste 0 -- -- 64
2017-11-22 13:00:00 8.6 7 Nordeste 13 Nordeste 0 -- -- 70
2017-11-22 12:00:00 6 9 Este 13 Este 0 -- -- 79
2017-11-22 11:00:00 3.1 8 Nordeste 11 Nordeste 0 -- -- 88
2017-11-22 10:00:00 0.3 8 Nordeste 10 Nordeste 0 -- -- 93
2017-11-22 09:00:00 -1.3 2 Este 3 Nordeste 0 -- -- 96
2017-11-22 08:00:00 -1.7 0 Calma 8 Oeste 0 -- -- 95
2017-11-22 07:00:00 -0.8 7 Oeste 9 Oeste 0 -- -- 95
2017-11-22 06:00:00 -0.7 4 Oeste 8 Oeste 0 -- -- 95
2017-11-22 05:00:00 -0.7 4 Oeste 10 Sudoeste 0 -- -- 94
2017-11-22 04:00:00 -0.3 3 Nordeste 6 Noroeste 0 -- -- 93
2017-11-22 03:00:00 1 5 Oeste 6 Oeste 0 -- -- 93
2017-11-22 02:00:00 0.6 3 Oeste 5 Noroeste 0 -- -- 92
2017-11-22 01:00:00 1.3 3 Oeste 8 Oeste 0 -- -- 91
2017-11-22 00:00:00 1.8 3 Oeste 8 Oeste 0 -- -- 89
2017-11-21 23:00:00 2.5 6 Noroeste 8 Oeste 0 -- -- 88
2017-11-21 22:00:00 3.3 4 Oeste 7 Noroeste 0 -- -- 84
2017-11-21 21:00:00 4.4 3 Oeste 7 Oeste 0 -- -- 82
2017-11-21 20:00:00 6.3 5 Oeste 8 Oeste 0 -- -- 76
2017-11-21 19:00:00 8.4 0 Calma 5 Nordeste 0 -- -- 69
2017-11-21 18:00:00 10.1 0 Calma 7 Este 0 -- -- 63
2017-11-21 17:00:00 13 4 Nordeste 10 Nordeste 0 -- -- 54
2017-11-21 16:00:00 13.3 9 Nordeste 12 Este 0 -- -- 54
2017-11-21 15:00:00 13.1 8 Nordeste 11 Este 0 -- -- 56
2017-11-21 14:00:00 11.8 9 Este 12 Este 0 -- -- 61
2017-11-21 13:00:00 9.5 7 Nordeste 11 Nordeste 0 -- -- 68
2017-11-21 12:00:00 6.6 8 Nordeste 13 Nordeste 0 -- -- 77
2017-11-21 11:00:00 3.9 9 Nordeste 13 Nordeste 0 -- -- 85
2017-11-21 10:00:00 1.5 6 Nordeste 8 Este 0 -- -- 92
2017-11-21 09:00:00 -0.5 0 Calma 7 Oeste 0 -- -- 95
2017-11-21 08:00:00 -1 2 Oeste 5 Oeste 0 -- -- 94
2017-11-21 07:00:00 -0.7 3 Oeste 5 Oeste 0 -- -- 94
2017-11-21 06:00:00 -0.4 0 Calma 10 Oeste 0 -- -- 93
2017-11-21 05:00:00 0.7 6 Oeste 12 Oeste 0 -- -- 93
2017-11-21 04:00:00 0.3 3 Oeste 8 Oeste 0 -- -- 93
2017-11-21 03:00:00 0.8 3 Oeste 6 Noroeste 0 -- -- 92
2017-11-21 02:00:00 1.6 3 Noroeste 6 Oeste 0 -- -- 92
2017-11-21 01:00:00 1.8 0 Calma 7 Sudoeste 0 -- -- 91
2017-11-21 00:00:00 2.2 4 Oeste 6 Oeste 0 -- -- 89
2017-11-20 23:00:00 2.9 4 Noroeste 6 Oeste 0 -- -- 86
2017-11-20 22:00:00 3.8 3 Oeste 6 Oeste 0 -- -- 83
2017-11-20 21:00:00 4.9 5 Oeste 8 Oeste 0 -- -- 80
2017-11-20 20:00:00 6.1 4 Oeste 6 Oeste 0 -- -- 76
2017-11-20 19:00:00 7.8 4 Oeste 7 Oeste 0 -- -- 72
2017-11-20 18:00:00 10.7 4 Nordeste 10 Nordeste 0 -- -- 62
2017-11-20 17:00:00 12.7 7 Nordeste 16 Este 0 -- -- 56
2017-11-20 16:00:00 13.3 8 Este 14 Este 0 -- -- 56
2017-11-20 15:00:00 13.1 11 Este 15 Este 0 -- -- 56
2017-11-20 14:00:00 12 10 Este 14 Este 0 -- -- 61
2017-11-20 13:00:00 10.3 9 Nordeste 13 Nordeste 0 -- -- 67
2017-11-20 12:00:00 7.5 10 Nordeste 14 Nordeste 0 -- -- 75
2017-11-20 11:00:00 4.6 8 Nordeste 10 Nordeste 0 -- -- 83
2017-11-20 10:00:00 2.7 3 Sur 8 Sur 0 -- -- 95
2017-11-20 09:00:00 -0.8 0 Calma 5 Noroeste 0 -- -- 95
2017-11-20 08:00:00 -1.4 0 Calma 9 Oeste 0 -- -- 95
2017-11-20 07:00:00 -1.1 5 Oeste 9 Noroeste 0 -- -- 95
2017-11-20 06:00:00 -1.2 3 Oeste 6 Oeste 0 -- -- 94
2017-11-20 05:00:00 -0.6 0 Calma 6 Noroeste 0 -- -- 94
2017-11-20 04:00:00 -0.1 3 Oeste 6 Noroeste 0 -- -- 94
2017-11-20 03:00:00 0.1 3 Oeste 5 Oeste 0 -- -- 93
2017-11-20 02:00:00 0.9 2 Noroeste 8 Noroeste 0 -- -- 92
2017-11-20 01:00:00 1.3 3 Noroeste 5 Oeste 0 -- -- 91
2017-11-20 00:00:00 2.1 0 Calma 8 Noroeste 0 -- -- 89
2017-11-19 23:00:00 3 4 Oeste 7 Noroeste 0 -- -- 88
2017-11-19 22:00:00 3.8 2 Oeste 6 Noroeste 0 -- -- 85
2017-11-19 21:00:00 5.1 4 Oeste 8 Oeste 0 -- -- 82
2017-11-19 20:00:00 6.1 2 Noroeste 6 Oeste 0 -- -- 80
2017-11-19 19:00:00 7.7 3 Oeste 7 Oeste 0 -- -- 74
2017-11-19 18:00:00 10.6 0 Calma 8 Este 0 -- -- 64
2017-11-19 17:00:00 13.4 5 Este 8 Este 0 -- -- 58
2017-11-19 16:00:00 13.7 5 Este 10 Este 0 -- -- 56
2017-11-19 15:00:00 13.2 5 Nordeste 10 Nordeste 0 -- -- 59
2017-11-19 14:00:00 12.4 6 Este 10 Nordeste 0 -- -- 62
2017-11-19 13:00:00 10.8 6 Este 9 Nordeste 0 -- -- 67
2017-11-19 12:00:00 8.8 6 Este 13 Nordeste 0 -- -- 74
2017-11-19 11:00:00 5.5 9 Nordeste 14 Nordeste 0 -- -- 83
2017-11-19 10:00:00 2.9 0 Calma 10 Nordeste 0 -- -- 92
2017-11-19 09:00:00 1.5 7 Oeste 11 Oeste 0 -- -- 96
2017-11-19 08:00:00 -0.4 4 Oeste 8 Oeste 0 -- -- 94
2017-11-19 07:00:00 1.3 5 Oeste 16 Oeste 0 -- -- 94
2017-11-19 06:00:00 0.2 0 Calma 10 Oeste 0 -- -- 93
2017-11-19 05:00:00 0.6 0 Calma 10 Oeste 0 -- -- 93
2017-11-19 04:00:00 1.6 5 Oeste 13 Oeste 0 -- -- 93
2017-11-19 03:00:00 1.7 5 Oeste 8 Oeste 0 -- -- 91
2017-11-19 02:00:00 2.1 6 Oeste 9 Oeste 0 -- -- 91
2017-11-19 01:00:00 2.2 5 Noroeste 7 Noroeste 0 -- -- 91
2017-11-19 00:00:00 2.8 3 Oeste 8 Oeste 0 -- -- 89
2017-11-18 23:00:00 3.6 4 Oeste 7 Noroeste 0 -- -- 88
2017-11-18 22:00:00 4.7 0 Calma 5 Oeste 0 -- -- 84
2017-11-18 21:00:00 5.7 0 Calma 6 Oeste 0 -- -- 80
2017-11-18 20:00:00 7.3 0 Calma 5 Noroeste 0 -- -- 75
2017-11-18 19:00:00 9.1 2 Norte 6 Este 0 -- -- 69
2017-11-18 18:00:00 10.8 0 Calma 5 Este 0 -- -- 64
2017-11-18 17:00:00 13.8 5 Este 10 Este 0 -- -- 54
2017-11-18 16:00:00 14.5 7 Este 10 Este 0 -- -- 53
2017-11-18 15:00:00 14.4 5 Nordeste 14 Nordeste 0 -- -- 53
2017-11-18 14:00:00 13.1 6 Este 11 Nordeste 0 -- -- 58
2017-11-18 13:00:00 11.5 8 Este 12 Nordeste 0 -- -- 62
2017-11-18 12:00:00 9 8 Nordeste 12 Este 0 -- -- 69
2017-11-18 11:00:00 5.8 6 Nordeste 13 Nordeste 0 -- -- 77
2017-11-18 10:00:00 3.2 3 Este 13 Nordeste 0 -- -- 85
2017-11-18 09:00:00 1.5 3 Nordeste 13 Oeste 0 -- -- 90
2017-11-18 08:00:00 -0.3 4 Sudoeste 8 Oeste 0 -- -- 92
2017-11-18 07:00:00 0.4 6 Oeste 11 Oeste 0 -- -- 91
2017-11-18 06:00:00 0.4 6 Oeste 10 Oeste 0 -- -- 91
2017-11-18 05:00:00 0.5 5 Oeste 8 Oeste 0 -- -- 91
2017-11-18 04:00:00 1 3 Norte 6 Nordeste 0 -- -- 89
2017-11-18 03:00:00 1.4 3 Norte 6 Oeste 0 -- -- 88
2017-11-18 02:00:00 2 2 Noroeste 6 Sudoeste 0 -- -- 88
2017-11-18 01:00:00 2.3 3 Oeste 8 Noroeste 0 -- -- 85
2017-11-18 00:00:00 2.9 0 Calma 6 Nordeste 0 -- -- 84
2017-11-17 23:00:00 3.9 3 Noroeste 7 Oeste 0 -- -- 80
2017-11-17 22:00:00 4.9 3 Oeste 5 Noroeste 0 -- -- 76
2017-11-17 21:00:00 6.4 4 Oeste 8 Oeste 0 -- -- 71
2017-11-17 20:00:00 8 5 Oeste 8 Oeste 0 -- -- 65
2017-11-17 19:00:00 8.1 4 Oeste 6 Noroeste 0 -- -- 64
2017-11-17 18:00:00 10.4 0 Calma 6 Este 0 -- -- 57
2017-11-17 17:00:00 13.6 4 Nordeste 10 Este 0 -- -- 48
2017-11-17 16:00:00 14.5 8 Este 11 Este 0 -- -- 45
2017-11-17 15:00:00 14.3 8 Este 11 Este 0 -- -- 47
2017-11-17 14:00:00 13.1 8 Este 11 Nordeste 0 -- -- 51
2017-11-17 13:00:00 11.3 8 Este 12 Nordeste 0 -- -- 58
2017-11-17 12:00:00 8.6 8 Este 13 Nordeste 0 -- -- 66
2017-11-17 11:00:00 5.6 6 Nordeste 12 Nordeste 0 -- -- 74
2017-11-17 10:00:00 3 6 Nordeste 10 Nordeste 0 -- -- 82
2017-11-17 09:00:00 0.2 0 Calma 6 Oeste 0 -- -- 94
2017-11-17 08:00:00 -1.5 3 Oeste 8 Nordeste 0 -- -- 91
2017-11-17 07:00:00 -0.6 6 Noroeste 9 Noroeste 0 -- -- 91
2017-11-17 06:00:00 -0.8 5 Noroeste 7 Noroeste 0 -- -- 91
2017-11-17 05:00:00 -0.5 2 Oeste 7 Noroeste 0 -- -- 90
2017-11-17 04:00:00 -0.3 3 Oeste 6 Nordeste 0 -- -- 89
2017-11-17 03:00:00 0.2 2 Oeste 7 Oeste 0 -- -- 89
2017-11-17 02:00:00 0.8 4 Oeste 8 Oeste 0 -- -- 87
2017-11-17 01:00:00 1.1 3 Oeste 8 Noroeste 0 -- -- 84
2017-11-17 00:00:00 2.2 2 Oeste 6 Noroeste 0 -- -- 80
2017-11-16 23:00:00 2.9 2 Noroeste 6 Noroeste 0 -- -- 78
2017-11-16 22:00:00 3.9 0 Calma 6 Oeste 0 -- -- 74
2017-11-16 21:00:00 4.9 4 Oeste 11 Oeste 0 -- -- 71
2017-11-16 20:00:00 6.2 8 Oeste 10 Oeste 0 -- -- 67
2017-11-16 19:00:00 7.3 3 Oeste 6 Oeste 0 -- -- 63
2017-11-16 18:00:00 9.2 0 Calma 4 Nordeste 0 -- -- 57
2017-11-16 17:00:00 13.2 0 Calma 8 Este 0 -- -- 46
2017-11-16 16:00:00 13.5 7 Este 9 Este 0 -- -- 45
2017-11-16 15:00:00 13.2 6 Nordeste 11 Nordeste 0 -- -- 47
2017-11-16 14:00:00 12.4 4 Este 9 Nordeste 0 -- -- 52
2017-11-16 13:00:00 10.7 7 Este 10 Este 0 -- -- 57
2017-11-16 12:00:00 8.5 6 Este 12 Este 0 -- -- 65
2017-11-16 11:00:00 5.5 8 Nordeste 13 Nordeste 0 -- -- 74
2017-11-16 10:00:00 2.7 6 Nordeste 8 Nordeste 0 -- -- 81
2017-11-16 09:00:00 0.2 5 Este 10 Oeste 0 -- -- 89
2017-11-16 08:00:00 -1 4 Oeste 12 Oeste 0 -- -- 91
2017-11-16 07:00:00 -1.3 4 Oeste 7 Oeste 0 -- -- 90
2017-11-16 06:00:00 -0.4 4 Oeste 8 Sudoeste 0 -- -- 91
2017-11-16 05:00:00 -0.4 4 Noroeste 8 Oeste 0 -- -- 89
2017-11-16 04:00:00 -0.1 2 Noroeste 6 Noroeste 0 -- -- 89
2017-11-16 03:00:00 0.7 0 Calma 7 Oeste 0 -- -- 87
2017-11-16 02:00:00 1.1 4 Oeste 7 Oeste 0 -- -- 86
2017-11-16 01:00:00 1.5 0 Calma 5 Oeste 0 -- -- 84
2017-11-16 00:00:00 2.1 0 Calma 4 Oeste 0 -- -- 81
2017-11-15 23:00:00 2.8 3 Noroeste 6 Oeste 0 -- -- 78
2017-11-15 22:00:00 3.9 3 Norte 6 Oeste 0 -- -- 72
2017-11-15 21:00:00 5.8 0 Calma 6 Nordeste 0 -- -- 67
2017-11-15 20:00:00 7 2 Nordeste 5 Noroeste 0 -- -- 64
2017-11-15 19:00:00 8.4 3 Norte 10 Nordeste 0 -- -- 59
2017-11-15 18:00:00 10 5 Nordeste 10 Nordeste 0 -- -- 54
2017-11-15 17:00:00 11.5 5 Este 13 Este 0 -- -- 49
2017-11-15 16:00:00 12.6 6 Este 10 Este 0 -- -- 45
2017-11-15 15:00:00 12.2 7 Este 13 Este 0 -- -- 46
2017-11-15 14:00:00 11.6 4 Este 12 Este 0 -- -- 49
2017-11-15 13:00:00 10 5 Este 11 Nordeste 0 -- -- 54
2017-11-15 12:00:00 7.8 6 Este 10 Este 0 -- -- 61
2017-11-15 11:00:00 5.3 6 Nordeste 10 Nordeste 0 -- -- 71
2017-11-15 10:00:00 2.2 8 Nordeste 13 Oeste 0 -- -- 78
2017-11-15 09:00:00 1.3 10 Sudoeste 16 Oeste 0 -- -- 80
2017-11-15 08:00:00 -0.6 7 Oeste 14 Oeste 0 -- -- 86
2017-11-15 07:00:00 -0.5 8 Oeste 14 Oeste 0 -- -- 85
2017-11-15 06:00:00 -0.3 5 Oeste 14 Oeste 0 -- -- 83
2017-11-15 05:00:00 -0.3 6 Oeste 14 Oeste 0 -- -- 81
2017-11-15 04:00:00 0.9 11 Oeste 16 Sudoeste 0 -- -- 78
2017-11-15 03:00:00 1.6 12 Oeste 17 Sudoeste 0 -- -- 75
2017-11-15 02:00:00 2.6 8 Sudoeste 14 Sudoeste 0 -- -- 78
2017-11-15 01:00:00 1.8 3 Noroeste 9 Oeste 0 -- -- 77
2017-11-15 00:00:00 2.8 9 Oeste 13 Sudoeste 0 -- -- 71